glasistre.hr alexa rank chart, glasistre.hr alexa rank daily changes

glasistre.hr alexa rank chart, glasistre.hr alexa rank daily changes

glasistre.hr
Actual rank:
64 615

RANK HISTORY

Date Rank Diff
2018/06/20 64 615 -4 381
2018/06/19 68 996 +8 847
2018/06/18 60 149 +4 212
2018/06/17 55 937 -35 109
2018/06/16 91 046 +13 576
2018/06/15 77 470 +18 250
2018/06/14 59 220 -12 498
2018/06/13 71 718 -3 136
2018/06/12 74 854 +11 202
2018/06/11 63 652 +9 885
2018/06/10 53 767 -9 738
2018/06/09 63 505 -2 487
2018/06/08 65 992 -6 653
2018/06/07 72 645 +8 830
2018/06/06 63 815 +13 143
2018/06/05 50 672 -2 073
2018/06/04 52 745 -14 395
2018/06/03 67 140 +8 514
2018/06/02 58 626 -17 886
2018/06/01 76 512 +8 103
2018/05/31 68 409 +2 353
2018/05/30 66 056 +5 347
2018/05/29 60 709 +9 326
2018/05/28 51 383 -20 108
2018/05/27 71 491 -7 051
2018/05/26 78 542 +11 116
2018/05/25 67 426 -38
2018/05/24 67 464 -20 887
2018/05/23 88 351 -2 362
2018/05/22 90 713 -32 876
2018/05/21 123 589 +50 868
2018/05/20 72 721 -29 417
2018/05/19 102 138 +9 672
2018/05/18 92 466 -35 703
2018/05/17 128 169 +17 842
2018/05/16 110 327 +11 673
2018/05/15 98 654 +14 486
2018/05/14 84 168 +3 870
2018/05/13 80 298 -3 626
2018/05/12 83 924 -893
2018/05/11 84 817 -21 127
2018/05/10 105 944 -17 330
2018/05/09 123 274 +1 616
2018/05/08 121 658 +28 778
2018/05/07 92 880 -4 053
2018/05/06 96 933 +21 941
2018/05/05 74 992 -14 917
2018/05/04 89 909 -16 156
2018/05/03 106 065 +19 503
2018/05/02 86 562 +9 043
2018/05/01 77 519 -56 590
2018/04/30 134 109 +31 793
2018/04/29 102 316 +20 513
2018/04/28 81 803 +13 960
2018/04/27 67 843 -21 826
2018/04/26 89 669 -6 669
2018/04/25 96 338 -62 216
2018/04/24 158 554 +90 711
2018/04/23 67 843 -33 476
2018/04/22 101 319 +16 373
2018/04/21 84 946

WIDGET FOR YOUR SITE

DOMAINS WITH THE NEAREST RANK

Domain Rank
bombbomb.com 64 610
koin.com 64 611
hsbc.com.vn 64 612
flowkey.com 64 613
slice.com 64 614
glasistre.hr 64 615
bounceexchange.com 64 616
translink.ca 64 617
meganorm.ru 64 618
100trade.com 64 619
nippyspace.com 64 620

DOMAINS WITH THE NEAREST RANK BY TLD .hr

Domain Rank
hzz.hr 58 286
srednja.hr 58 698
meteo.hr 59 046
bauhaus.hr 61 360
hns-cff.hr 63 803
glasistre.hr 64 615
jeftinije.hr 65 940
vipnet.hr 68 948
americanexpress.hr 69 552
elipso.hr 70 449
posta.hr 74 107